Terminal Aerodrome Forecast
Issued by NWS

Home | Current Version | Previous Version | Text Only | Print | Product List | Glossary On
Versions: 1 2 3 4 5 6 7 8 9 10 11 12 13 14 15 16
000
FTUS44 KBMX 302347
TAFTCL
TAF
KTCL 302347Z 0100/0124 17010G15KT P6SM SHRA OVC080
     FM010300 17014KT P6SM -RA OVC050
     FM011000 24012KT P6SM OVC050
     FM011500 24017G22KT P6SM SKC=

USA.gov is the U.S. government's official web portal to all federal, state and local government web resources and services.